sensor_id;sensor_type;location;lat;lon;timestamp;pressure;altitude;pressure_sealevel;temperature;humidity
78313;BME280;67568;47.438;21.408;2023-07-31T00:12:09;100120.06;;;19.74;86.96
78313;BME280;67568;47.438;21.408;2023-07-31T00:14:38;100117.19;;;19.71;87.14
78313;BME280;67568;47.438;21.408;2023-07-31T00:17:05;100115.72;;;19.77;87.24
78313;BME280;67568;47.438;21.408;2023-07-31T00:19:32;100124.94;;;19.77;86.31
78313;BME280;67568;47.438;21.408;2023-07-31T00:21:59;100129.31;;;19.75;87.02
78313;BME280;67568;47.438;21.408;2023-07-31T00:24:29;100124.53;;;19.75;87.31
78313;BME280;67568;47.438;21.408;2023-07-31T00:26:58;100139.00;;;19.77;87.23
78313;BME280;67568;47.438;21.408;2023-07-31T00:29:25;100141.81;;;19.77;86.87
78313;BME280;67568;47.438;21.408;2023-07-31T00:31:53;100144.63;;;19.77;86.98
78313;BME280;67568;47.438;21.408;2023-07-31T00:34:20;100146.00;;;19.84;86.63
78313;BME280;67568;47.438;21.408;2023-07-31T00:36:49;100146.47;;;19.89;87.28
78313;BME280;67568;47.438;21.408;2023-07-31T00:39:15;100146.41;;;19.86;86.75
78313;BME280;67568;47.438;21.408;2023-07-31T00:41:42;100143.75;;;19.93;86.13
78313;BME280;67568;47.438;21.408;2023-07-31T00:44:09;100149.00;;;19.94;86.69
78313;BME280;67568;47.438;21.408;2023-07-31T00:46:36;100148.47;;;19.89;86.99
78313;BME280;67568;47.438;21.408;2023-07-31T00:49:04;100141.31;;;19.91;86.21
78313;BME280;67568;47.438;21.408;2023-07-31T00:51:33;100145.25;;;19.87;87.15
78313;BME280;67568;47.438;21.408;2023-07-31T00:54:00;100144.41;;;19.86;86.91
78313;BME280;67568;47.438;21.408;2023-07-31T00:56:27;100132.81;;;19.88;87.02
78313;BME280;67568;47.438;21.408;2023-07-31T00:58:55;100129.47;;;19.82;87.12
78313;BME280;67568;47.438;21.408;2023-07-31T01:01:25;100127.41;;;19.79;88.71
78313;BME280;67568;47.438;21.408;2023-07-31T01:03:52;100124.94;;;19.77;88.22
78313;BME280;67568;47.438;21.408;2023-07-31T01:06:45;100124.94;;;19.77;87.66
78313;BME280;67568;47.438;21.408;2023-07-31T01:09:37;100117.25;;;19.74;87.81
78313;BME280;67568;47.438;21.408;2023-07-31T01:12:09;100120.97;;;19.79;87.92
78313;BME280;67568;47.438;21.408;2023-07-31T01:14:39;100133.53;;;19.85;88.18
78313;BME280;67568;47.438;21.408;2023-07-31T01:17:08;100128.81;;;19.89;87.14
78313;BME280;67568;47.438;21.408;2023-07-31T01:19:38;100129.53;;;19.86;87.71
78313;BME280;67568;47.438;21.408;2023-07-31T01:25:22;100119.84;;;19.83;87.52
78313;BME280;67568;47.438;21.408;2023-07-31T01:28:01;100120.22;;;19.82;87.59
78313;BME280;67568;47.438;21.408;2023-07-31T01:30:33;100115.56;;;19.70;88.49
78313;BME280;67568;47.438;21.408;2023-07-31T01:33:02;100108.69;;;19.67;88.28
78313;BME280;67568;47.438;21.408;2023-07-31T01:35:34;100105.44;;;19.65;88.89
78313;BME280;67568;47.438;21.408;2023-07-31T01:38:01;100101.25;;;19.59;89.12
78313;BME280;67568;47.438;21.408;2023-07-31T01:40:30;100107.25;;;19.58;88.85
78313;BME280;67568;47.438;21.408;2023-07-31T01:42:57;100099.84;;;19.49;89.05
78313;BME280;67568;47.438;21.408;2023-07-31T01:45:24;100100.50;;;19.43;89.07
78313;BME280;67568;47.438;21.408;2023-07-31T01:47:51;100099.94;;;19.53;88.16
78313;BME280;67568;47.438;21.408;2023-07-31T01:50:18;100099.84;;;19.49;88.96
78313;BME280;67568;47.438;21.408;2023-07-31T01:52:44;100095.78;;;19.47;88.23
78313;BME280;67568;47.438;21.408;2023-07-31T01:55:11;100095.78;;;19.47;89.24
78313;BME280;67568;47.438;21.408;2023-07-31T01:57:38;100093.56;;;19.37;88.51
78313;BME280;67568;47.438;21.408;2023-07-31T02:00:07;100088.88;;;19.25;89.12
78313;BME280;67568;47.438;21.408;2023-07-31T02:02:34;100091.25;;;19.23;90.10
78313;BME280;67568;47.438;21.408;2023-07-31T02:05:04;100084.81;;;19.22;89.23
78313;BME280;67568;47.438;21.408;2023-07-31T02:07:30;100089.53;;;19.18;89.92
78313;BME280;67568;47.438;21.408;2023-07-31T02:09:57;100094.91;;;19.07;89.85
78313;BME280;67568;47.438;21.408;2023-07-31T02:12:24;100103.88;;;19.13;89.56
78313;BME280;67568;47.438;21.408;2023-07-31T02:14:53;100099.72;;;19.07;89.74
78313;BME280;67568;47.438;21.408;2023-07-31T02:17:22;100112.38;;;19.01;90.50
78313;BME280;67568;47.438;21.408;2023-07-31T02:19:50;100103.09;;;18.97;90.07
78313;BME280;67568;47.438;21.408;2023-07-31T02:22:17;100113.66;;;19.03;90.45
78313;BME280;67568;47.438;21.408;2023-07-31T02:24:44;100120.09;;;19.04;90.41
78313;BME280;67568;47.438;21.408;2023-07-31T02:27:10;100121.72;;;19.05;90.11
78313;BME280;67568;47.438;21.408;2023-07-31T02:29:37;100126.22;;;19.09;89.79
78313;BME280;67568;47.438;21.408;2023-07-31T02:32:04;100124.53;;;19.05;90.02
78313;BME280;67568;47.438;21.408;2023-07-31T02:34:31;100126.81;;;18.99;90.39
78313;BME280;67568;47.438;21.408;2023-07-31T02:36:58;100133.78;;;18.90;90.76
78313;BME280;67568;47.438;21.408;2023-07-31T02:39:26;100133.34;;;18.87;90.65
78313;BME280;67568;47.438;21.408;2023-07-31T02:41:52;100134.09;;;18.84;90.59
78313;BME280;67568;47.438;21.408;2023-07-31T02:44:19;100140.50;;;18.85;90.62
78313;BME280;67568;47.438;21.408;2023-07-31T02:46:46;100144.84;;;18.82;90.52
78313;BME280;67568;47.438;21.408;2023-07-31T02:49:13;100140.03;;;18.83;91.11
78313;BME280;67568;47.438;21.408;2023-07-31T02:51:40;100145.59;;;18.79;91.41
78313;BME280;67568;47.438;21.408;2023-07-31T02:54:07;100140.31;;;18.78;91.39
78313;BME280;67568;47.438;21.408;2023-07-31T02:56:33;100147.94;;;18.77;91.35
78313;BME280;67568;47.438;21.408;2023-07-31T02:59:00;100140.94;;;18.71;91.27
78313;BME280;67568;47.438;21.408;2023-07-31T03:01:27;100137.44;;;18.74;90.78
78313;BME280;67568;47.438;21.408;2023-07-31T03:03:54;100137.09;;;18.76;91.42
78313;BME280;67568;47.438;21.408;2023-07-31T03:06:21;100128.81;;;18.67;91.48
78313;BME280;67568;47.438;21.408;2023-07-31T03:08:47;100132.50;;;18.71;91.51
78313;BME280;67568;47.438;21.408;2023-07-31T03:11:14;100133.97;;;18.65;91.79
78313;BME280;67568;47.438;21.408;2023-07-31T03:13:41;100135.59;;;18.66;91.09
78313;BME280;67568;47.438;21.408;2023-07-31T03:16:09;100138.31;;;18.62;91.60
78313;BME280;67568;47.438;21.408;2023-07-31T03:18:36;100134.44;;;18.67;91.00
78313;BME280;67568;47.438;21.408;2023-07-31T03:21:04;100140.69;;;18.76;91.09
78313;BME280;67568;47.438;21.408;2023-07-31T03:23:30;100137.44;;;18.74;91.78
78313;BME280;67568;47.438;21.408;2023-07-31T03:26:02;100141.28;;;18.70;91.62
78313;BME280;67568;47.438;21.408;2023-07-31T03:28:31;100139.31;;;18.70;91.83
78313;BME280;67568;47.438;21.408;2023-07-31T03:31:00;100129.97;;;18.66;92.36
78313;BME280;67568;47.438;21.408;2023-07-31T03:33:28;100130.06;;;18.70;91.69
78313;BME280;67568;47.438;21.408;2023-07-31T03:35:57;100136.38;;;18.66;91.97
78313;BME280;67568;47.438;21.408;2023-07-31T03:38:25;100135.84;;;18.61;92.03
78313;BME280;67568;47.438;21.408;2023-07-31T03:40:52;100137.66;;;18.69;92.29
78313;BME280;67568;47.438;21.408;2023-07-31T03:43:18;100134.13;;;18.72;91.17
78313;BME280;67568;47.438;21.408;2023-07-31T03:45:45;100155.88;;;18.75;91.69
78313;BME280;67568;47.438;21.408;2023-07-31T03:48:14;100143.59;;;18.80;91.31
78313;BME280;67568;47.438;21.408;2023-07-31T03:50:44;100157.91;;;18.91;90.69
78313;BME280;67568;47.438;21.408;2023-07-31T03:53:15;100154.44;;;18.97;90.33
78313;BME280;67568;47.438;21.408;2023-07-31T03:55:42;100152.09;;;18.99;90.31
78313;BME280;67568;47.438;21.408;2023-07-31T03:58:08;100162.06;;;18.97;91.19
78313;BME280;67568;47.438;21.408;2023-07-31T04:00:35;100163.31;;;18.99;90.70
78313;BME280;67568;47.438;21.408;2023-07-31T04:03:02;100161.31;;;19.00;90.70
78313;BME280;67568;47.438;21.408;2023-07-31T04:05:32;100162.06;;;18.97;90.89
78313;BME280;67568;47.438;21.408;2023-07-31T04:07:59;100162.50;;;18.99;90.64
78313;BME280;67568;47.438;21.408;2023-07-31T04:10:26;100171.16;;;19.09;90.48
78313;BME280;67568;47.438;21.408;2023-07-31T04:12:52;100167.75;;;19.16;90.35
78313;BME280;67568;47.438;21.408;2023-07-31T04:15:19;100172.78;;;19.26;90.33
78313;BME280;67568;47.438;21.408;2023-07-31T04:17:46;100163.06;;;19.40;89.53
78313;BME280;67568;47.438;21.408;2023-07-31T04:20:13;100165.72;;;19.52;89.21
78313;BME280;67568;47.438;21.408;2023-07-31T04:22:44;100173.28;;;19.48;88.62
78313;BME280;67568;47.438;21.408;2023-07-31T04:25:11;100174.06;;;19.64;88.32
78313;BME280;67568;47.438;21.408;2023-07-31T04:27:39;100170.31;;;19.76;88.26
78313;BME280;67568;47.438;21.408;2023-07-31T04:30:06;100170.56;;;19.87;86.74
78313;BME280;67568;47.438;21.408;2023-07-31T04:32:35;100180.38;;;19.96;86.39
78313;BME280;67568;47.438;21.408;2023-07-31T04:35:02;100184.97;;;20.05;86.78
78313;BME280;67568;47.438;21.408;2023-07-31T04:37:29;100184.00;;;20.16;85.90
78313;BME280;67568;47.438;21.408;2023-07-31T04:39:56;100180.91;;;20.21;85.29
78313;BME280;67568;47.438;21.408;2023-07-31T04:42:23;100178.53;;;20.24;86.43
78313;BME280;67568;47.438;21.408;2023-07-31T04:44:50;100187.41;;;20.26;86.12
78313;BME280;67568;47.438;21.408;2023-07-31T04:47:17;100193.13;;;20.29;86.33
78313;BME280;67568;47.438;21.408;2023-07-31T04:49:47;100189.97;;;20.34;85.96
78313;BME280;67568;47.438;21.408;2023-07-31T04:52:14;100181.53;;;20.54;85.26
78313;BME280;67568;47.438;21.408;2023-07-31T04:54:41;100185.50;;;20.72;84.66
78313;BME280;67568;47.438;21.408;2023-07-31T04:57:08;100189.53;;;20.75;84.38
78313;BME280;67568;47.438;21.408;2023-07-31T04:59:35;100191.03;;;20.92;83.58
78313;BME280;67568;47.438;21.408;2023-07-31T05:02:02;100202.19;;;21.07;82.58
78313;BME280;67568;47.438;21.408;2023-07-31T05:04:29;100202.53;;;21.29;82.18
78313;BME280;67568;47.438;21.408;2023-07-31T05:06:55;100201.91;;;21.39;81.21
78313;BME280;67568;47.438;21.408;2023-07-31T05:09:22;100206.78;;;21.42;81.15
78313;BME280;67568;47.438;21.408;2023-07-31T05:11:49;100204.19;;;21.56;81.13
78313;BME280;67568;47.438;21.408;2023-07-31T05:14:16;100211.66;;;21.72;79.33
78313;BME280;67568;47.438;21.408;2023-07-31T05:16:43;100209.03;;;21.86;78.84
78313;BME280;67568;47.438;21.408;2023-07-31T05:19:10;100215.78;;;21.78;79.53
78313;BME280;67568;47.438;21.408;2023-07-31T05:21:37;100215.00;;;21.81;79.77
78313;BME280;67568;47.438;21.408;2023-07-31T05:24:04;100213.72;;;21.75;79.93
78313;BME280;67568;47.438;21.408;2023-07-31T05:26:31;100205.97;;;21.98;78.49
78313;BME280;67568;47.438;21.408;2023-07-31T05:28:57;100208.75;;;21.95;78.83
78313;BME280;67568;47.438;21.408;2023-07-31T05:31:29;100210.69;;;22.17;77.97
78313;BME280;67568;47.438;21.408;2023-07-31T05:33:56;100204.28;;;22.20;77.98
78313;BME280;67568;47.438;21.408;2023-07-31T05:36:23;100217.47;;;22.47;76.59
78313;BME280;67568;47.438;21.408;2023-07-31T05:38:51;100212.91;;;22.72;75.65
78313;BME280;67568;47.438;21.408;2023-07-31T05:41:17;100225.81;;;22.73;76.08
78313;BME280;67568;47.438;21.408;2023-07-31T05:43:44;100217.13;;;22.93;75.36
78313;BME280;67568;47.438;21.408;2023-07-31T05:46:11;100223.75;;;23.07;74.74
78313;BME280;67568;47.438;21.408;2023-07-31T05:48:38;100221.03;;;23.22;73.69
78313;BME280;67568;47.438;21.408;2023-07-31T05:51:05;100226.19;;;23.09;73.65
78313;BME280;67568;47.438;21.408;2023-07-31T05:53:32;100231.31;;;23.44;72.89
78313;BME280;67568;47.438;21.408;2023-07-31T05:55:58;100229.03;;;23.68;72.10
78313;BME280;67568;47.438;21.408;2023-07-31T05:58:25;100232.81;;;23.86;70.76
78313;BME280;67568;47.438;21.408;2023-07-31T06:00:52;100234.03;;;23.85;70.91
78313;BME280;67568;47.438;21.408;2023-07-31T06:03:19;100235.31;;;24.02;70.36
78313;BME280;67568;47.438;21.408;2023-07-31T06:05:45;100243.06;;;24.12;70.52
78313;BME280;67568;47.438;21.408;2023-07-31T06:08:12;100243.78;;;23.95;70.32
78313;BME280;67568;47.438;21.408;2023-07-31T06:10:39;100242.53;;;23.89;71.23
78313;BME280;67568;47.438;21.408;2023-07-31T06:13:06;100244.66;;;24.06;71.25
78313;BME280;67568;47.438;21.408;2023-07-31T06:15:33;100248.91;;;24.48;69.24
78313;BME280;67568;47.438;21.408;2023-07-31T06:18:00;100253.03;;;24.86;67.99
78313;BME280;67568;47.438;21.408;2023-07-31T06:20:26;100246.97;;;24.99;66.79
78313;BME280;67568;47.438;21.408;2023-07-31T06:22:53;100254.31;;;25.18;66.27
78313;BME280;67568;47.438;21.408;2023-07-31T06:25:20;100253.50;;;25.21;65.88
78313;BME280;67568;47.438;21.408;2023-07-31T06:27:54;100253.44;;;24.96;67.42
78313;BME280;67568;47.438;21.408;2023-07-31T06:30:21;100247.03;;;25.17;66.63
78313;BME280;67568;47.438;21.408;2023-07-31T06:32:47;100244.19;;;25.31;66.41
78313;BME280;67568;47.438;21.408;2023-07-31T06:35:14;100242.56;;;25.51;65.11
78313;BME280;67568;47.438;21.408;2023-07-31T06:37:41;100249.03;;;25.59;64.62
78313;BME280;67568;47.438;21.408;2023-07-31T06:40:09;100241.75;;;25.62;64.02
78313;BME280;67568;47.438;21.408;2023-07-31T06:42:36;100240.94;;;25.47;63.87
78313;BME280;67568;47.438;21.408;2023-07-31T06:45:04;100237.31;;;25.39;64.04
78313;BME280;67568;47.438;21.408;2023-07-31T06:47:31;100228.81;;;25.39;64.70
78313;BME280;67568;47.438;21.408;2023-07-31T06:50:01;100233.66;;;25.21;64.83
78313;BME280;67568;47.438;21.408;2023-07-31T06:52:30;100223.91;;;25.07;66.21
78313;BME280;67568;47.438;21.408;2023-07-31T06:55:24;100219.47;;;25.17;66.42
78313;BME280;67568;47.438;21.408;2023-07-31T06:57:52;100214.19;;;25.30;64.57
78313;BME280;67568;47.438;21.408;2023-07-31T07:00:22;100220.66;;;25.05;66.28
78313;BME280;67568;47.438;21.408;2023-07-31T07:02:49;100229.13;;;24.84;64.97
78313;BME280;67568;47.438;21.408;2023-07-31T07:05:24;100218.22;;;25.00;64.81
78313;BME280;67568;47.438;21.408;2023-07-31T07:07:51;100222.66;;;24.87;65.60
78313;BME280;67568;47.438;21.408;2023-07-31T07:10:20;100221.50;;;25.17;64.58
78313;BME280;67568;47.438;21.408;2023-07-31T07:12:52;100220.25;;;24.96;65.07
78313;BME280;67568;47.438;21.408;2023-07-31T07:15:19;100213.78;;;25.13;63.60
78313;BME280;67568;47.438;21.408;2023-07-31T07:17:50;100212.59;;;25.36;63.56
78313;BME280;67568;47.438;21.408;2023-07-31T07:20:17;100205.72;;;25.23;63.27
78313;BME280;67568;47.438;21.408;2023-07-31T07:22:44;100213.81;;;25.21;61.59
78313;BME280;67568;47.438;21.408;2023-07-31T07:25:12;100215.44;;;25.18;62.91
78313;BME280;67568;47.438;21.408;2023-07-31T07:27:38;100213.41;;;25.37;60.60
78313;BME280;67568;47.438;21.408;2023-07-31T07:30:06;100216.66;;;25.28;62.87
78313;BME280;67568;47.438;21.408;2023-07-31T07:32:33;100217.47;;;25.39;62.15
78313;BME280;67568;47.438;21.408;2023-07-31T07:35:02;100217.03;;;25.44;62.52
78313;BME280;67568;47.438;21.408;2023-07-31T07:37:29;100215.34;;;25.72;61.86
78313;BME280;67568;47.438;21.408;2023-07-31T07:39:59;100222.31;;;25.53;62.30
78313;BME280;67568;47.438;21.408;2023-07-31T07:42:25;100216.56;;;25.74;60.49
78313;BME280;67568;47.438;21.408;2023-07-31T07:44:52;100218.22;;;25.83;60.88
78313;BME280;67568;47.438;21.408;2023-07-31T07:47:25;100218.59;;;25.74;61.47
78313;BME280;67568;47.438;21.408;2023-07-31T07:50:04;100219.00;;;25.94;61.17
78313;BME280;67568;47.438;21.408;2023-07-31T07:52:35;100206.88;;;25.61;61.61
78313;BME280;67568;47.438;21.408;2023-07-31T07:55:07;100212.13;;;25.73;61.54
78313;BME280;67568;47.438;21.408;2023-07-31T07:57:40;100206.44;;;25.77;61.97
78313;BME280;67568;47.438;21.408;2023-07-31T08:00:14;100210.81;;;26.14;60.78
78313;BME280;67568;47.438;21.408;2023-07-31T08:02:41;100213.22;;;26.12;60.32
78313;BME280;67568;47.438;21.408;2023-07-31T08:05:08;100215.94;;;26.40;60.02
78313;BME280;67568;47.438;21.408;2023-07-31T08:07:35;100214.69;;;26.56;59.53
78313;BME280;67568;47.438;21.408;2023-07-31T08:10:15;100214.22;;;26.61;59.06
78313;BME280;67568;47.438;21.408;2023-07-31T08:12:45;100224.34;;;26.69;58.65
78313;BME280;67568;47.438;21.408;2023-07-31T08:15:19;100215.69;;;26.87;58.31
78313;BME280;67568;47.438;21.408;2023-07-31T08:17:48;100227.34;;;27.03;56.85
78313;BME280;67568;47.438;21.408;2023-07-31T08:20:15;100218.25;;;27.26;56.55
78313;BME280;67568;47.438;21.408;2023-07-31T08:22:41;100219.22;;;27.05;57.26
78313;BME280;67568;47.438;21.408;2023-07-31T08:25:11;100223.56;;;26.65;58.62
78313;BME280;67568;47.438;21.408;2023-07-31T08:27:38;100226.13;;;26.34;59.41
78313;BME280;67568;47.438;21.408;2023-07-31T08:30:05;100219.72;;;26.12;60.30
78313;BME280;67568;47.438;21.408;2023-07-31T08:32:32;100217.34;;;25.78;60.48
78313;BME280;67568;47.438;21.408;2023-07-31T08:35:03;100216.56;;;25.74;60.24
78313;BME280;67568;47.438;21.408;2023-07-31T08:37:32;100219.84;;;25.66;60.12
78313;BME280;67568;47.438;21.408;2023-07-31T08:40:01;100209.94;;;26.28;57.46
78313;BME280;67568;47.438;21.408;2023-07-31T08:42:28;100219.63;;;26.34;57.73
78313;BME280;67568;47.438;21.408;2023-07-31T08:44:59;100218.59;;;26.80;56.46
78313;BME280;67568;47.438;21.408;2023-07-31T08:47:26;100225.16;;;26.66;57.48
78313;BME280;67568;47.438;21.408;2023-07-31T08:49:57;100225.13;;;26.69;57.66
78313;BME280;67568;47.438;21.408;2023-07-31T08:52:28;100218.22;;;26.74;57.38
78313;BME280;67568;47.438;21.408;2023-07-31T08:54:55;100214.69;;;26.52;57.84
78313;BME280;67568;47.438;21.408;2023-07-31T08:57:25;100213.88;;;26.52;56.61
78313;BME280;67568;47.438;21.408;2023-07-31T08:59:52;100226.69;;;26.85;56.39
78313;BME280;67568;47.438;21.408;2023-07-31T09:02:23;100215.22;;;26.96;56.56
78313;BME280;67568;47.438;21.408;2023-07-31T09:04:52;100215.47;;;27.12;55.39
78313;BME280;67568;47.438;21.408;2023-07-31T09:07:20;100212.19;;;27.24;55.67
78313;BME280;67568;47.438;21.408;2023-07-31T09:09:47;100212.53;;;26.74;55.73
78313;BME280;67568;47.438;21.408;2023-07-31T09:12:14;100198.44;;;26.49;57.23
78313;BME280;67568;47.438;21.408;2023-07-31T09:14:42;100194.47;;;26.36;57.85
78313;BME280;67568;47.438;21.408;2023-07-31T09:17:13;100190.41;;;26.37;57.57
78313;BME280;67568;47.438;21.408;2023-07-31T09:19:40;100192.78;;;26.45;57.05
78313;BME280;67568;47.438;21.408;2023-07-31T09:22:06;100199.28;;;26.42;57.05
78313;BME280;67568;47.438;21.408;2023-07-31T09:24:34;100187.94;;;26.35;57.77
78313;BME280;67568;47.438;21.408;2023-07-31T09:27:05;100195.28;;;26.29;56.88
78313;BME280;67568;47.438;21.408;2023-07-31T09:29:32;100187.94;;;26.35;56.57
78313;BME280;67568;47.438;21.408;2023-07-31T09:31:59;100194.41;;;26.43;56.81
78313;BME280;67568;47.438;21.408;2023-07-31T09:34:36;100200.47;;;26.48;55.88
78313;BME280;67568;47.438;21.408;2023-07-31T09:37:05;100194.78;;;26.48;55.95
78313;BME280;67568;47.438;21.408;2023-07-31T09:39:55;100197.25;;;27.06;54.08
78313;BME280;67568;47.438;21.408;2023-07-31T09:42:26;100197.69;;;27.01;54.25
78313;BME280;67568;47.438;21.408;2023-07-31T09:45:07;100195.53;;;26.67;52.03
78313;BME280;67568;47.438;21.408;2023-07-31T09:47:34;100188.38;;;26.34;52.86
78313;BME280;67568;47.438;21.408;2023-07-31T09:50:01;100187.19;;;26.31;54.14
78313;BME280;67568;47.438;21.408;2023-07-31T09:52:27;100183.97;;;26.25;53.85
78313;BME280;67568;47.438;21.408;2023-07-31T09:54:59;100184.34;;;26.31;53.48
78313;BME280;67568;47.438;21.408;2023-07-31T09:57:28;100186.13;;;26.74;52.53
78313;BME280;67568;47.438;21.408;2023-07-31T09:59:56;100187.31;;;26.80;51.40
78313;BME280;67568;47.438;21.408;2023-07-31T10:02:23;100183.06;;;27.02;51.68
78313;BME280;67568;47.438;21.408;2023-07-31T10:04:51;100188.25;;;27.18;50.59
78313;BME280;67568;47.438;21.408;2023-07-31T10:07:22;100184.94;;;27.23;50.62
78313;BME280;67568;47.438;21.408;2023-07-31T10:09:53;100179.91;;;27.42;50.07
78313;BME280;67568;47.438;21.408;2023-07-31T10:12:22;100173.75;;;27.47;50.29
78313;BME280;67568;47.438;21.408;2023-07-31T10:14:59;100180.94;;;27.58;50.06
78313;BME280;67568;47.438;21.408;2023-07-31T10:17:32;100172.75;;;27.64;50.54
78313;BME280;67568;47.438;21.408;2023-07-31T10:20:04;100168.09;;;27.77;49.92
78313;BME280;67568;47.438;21.408;2023-07-31T10:22:39;100172.06;;;27.91;49.67
78313;BME280;67568;47.438;21.408;2023-07-31T10:25:08;100178.50;;;27.95;49.20
78313;BME280;67568;47.438;21.408;2023-07-31T10:27:38;100169.41;;;28.07;49.89
78313;BME280;67568;47.438;21.408;2023-07-31T10:30:10;100162.16;;;28.02;48.86
78313;BME280;67568;47.438;21.408;2023-07-31T10:32:45;100156.88;;;28.01;49.54
78313;BME280;67568;47.438;21.408;2023-07-31T10:35:20;100164.22;;;27.64;50.27
78313;BME280;67568;47.438;21.408;2023-07-31T10:37:47;100160.41;;;27.78;49.87
78313;BME280;67568;47.438;21.408;2023-07-31T10:40:19;100157.91;;;27.84;49.85
78313;BME280;67568;47.438;21.408;2023-07-31T10:42:56;100156.09;;;27.63;49.80
78313;BME280;67568;47.438;21.408;2023-07-31T10:45:42;100158.41;;;27.71;49.58
78313;BME280;67568;47.438;21.408;2023-07-31T10:48:15;100159.59;;;27.40;49.93
78313;BME280;67568;47.438;21.408;2023-07-31T10:50:57;100160.69;;;27.08;49.91
78313;BME280;67568;47.438;21.408;2023-07-31T10:53:30;100161.13;;;27.03;50.90
78313;BME280;67568;47.438;21.408;2023-07-31T10:56:03;100146.66;;;27.31;50.79
78313;BME280;67568;47.438;21.408;2023-07-31T10:58:31;100148.34;;;27.25;50.92
78313;BME280;67568;47.438;21.408;2023-07-31T11:01:04;100150.88;;;27.16;51.25
78313;BME280;67568;47.438;21.408;2023-07-31T11:03:46;100151.91;;;27.36;51.08
78313;BME280;67568;47.438;21.408;2023-07-31T11:06:19;100144.66;;;27.66;50.26
78313;BME280;67568;47.438;21.408;2023-07-31T11:08:50;100137.28;;;27.72;49.40
78313;BME280;67568;47.438;21.408;2023-07-31T11:11:18;100147.09;;;28.02;49.67
78313;BME280;67568;47.438;21.408;2023-07-31T11:13:50;100143.00;;;28.34;49.14
78313;BME280;67568;47.438;21.408;2023-07-31T11:16:18;100142.88;;;28.14;49.58
78313;BME280;67568;47.438;21.408;2023-07-31T11:18:46;100136.34;;;27.83;49.94
78313;BME280;67568;47.438;21.408;2023-07-31T11:21:20;100139.34;;;27.68;50.42
78313;BME280;67568;47.438;21.408;2023-07-31T11:23:52;100142.66;;;27.97;49.48
78313;BME280;67568;47.438;21.408;2023-07-31T11:26:26;100139.09;;;28.20;48.41
78313;BME280;67568;47.438;21.408;2023-07-31T11:28:53;100147.09;;;28.33;48.61
78313;BME280;67568;47.438;21.408;2023-07-31T11:31:20;100139.66;;;28.39;47.77
78313;BME280;67568;47.438;21.408;2023-07-31T11:33:47;100134.44;;;28.34;46.63
78313;BME280;67568;47.438;21.408;2023-07-31T11:36:16;100133.22;;;28.35;47.72
78313;BME280;67568;47.438;21.408;2023-07-31T11:38:43;100136.75;;;28.15;47.55
78313;BME280;67568;47.438;21.408;2023-07-31T11:41:10;100135.50;;;27.86;48.36
78313;BME280;67568;47.438;21.408;2023-07-31T11:43:36;100135.09;;;27.87;48.49
78313;BME280;67568;47.438;21.408;2023-07-31T11:46:03;100128.25;;;27.77;49.16
78313;BME280;67568;47.438;21.408;2023-07-31T11:48:32;100129.88;;;27.78;48.88
78313;BME280;67568;47.438;21.408;2023-07-31T11:51:04;100131.38;;;27.56;49.64
78313;BME280;67568;47.438;21.408;2023-07-31T11:53:50;100133.59;;;27.72;49.75
78313;BME280;67568;47.438;21.408;2023-07-31T11:56:21;100134.13;;;27.63;49.50
78313;BME280;67568;47.438;21.408;2023-07-31T11:58:56;100131.91;;;27.44;50.23
78313;BME280;67568;47.438;21.408;2023-07-31T12:01:24;100136.03;;;27.39;49.46
78313;BME280;67568;47.438;21.408;2023-07-31T12:03:53;100123.41;;;27.40;50.08
78313;BME280;67568;47.438;21.408;2023-07-31T12:06:21;100117.34;;;27.34;50.08
78313;BME280;67568;47.438;21.408;2023-07-31T12:08:48;100110.16;;;27.23;49.00
78313;BME280;67568;47.438;21.408;2023-07-31T12:11:16;100106.47;;;27.26;49.46
78313;BME280;67568;47.438;21.408;2023-07-31T12:13:43;100109.28;;;27.29;48.88
78313;BME280;67568;47.438;21.408;2023-07-31T12:16:12;100109.38;;;27.15;49.24
78313;BME280;67568;47.438;21.408;2023-07-31T12:18:41;100101.06;;;27.39;48.63
78313;BME280;67568;47.438;21.408;2023-07-31T12:21:11;100102.28;;;27.72;47.63
78313;BME280;67568;47.438;21.408;2023-07-31T12:23:38;100093.59;;;27.86;47.75
78313;BME280;67568;47.438;21.408;2023-07-31T12:26:14;100097.25;;;27.87;47.44
78313;BME280;67568;47.438;21.408;2023-07-31T12:28:45;100092.44;;;27.84;47.79
78313;BME280;67568;47.438;21.408;2023-07-31T12:31:20;100083.19;;;27.38;49.46
78313;BME280;67568;47.438;21.408;2023-07-31T12:33:49;100078.81;;;27.64;48.56
78313;BME280;67568;47.438;21.408;2023-07-31T12:36:25;100087.53;;;27.50;48.60
78313;BME280;67568;47.438;21.408;2023-07-31T12:38:52;100078.13;;;27.53;49.27
78313;BME280;67568;47.438;21.408;2023-07-31T12:41:19;100082.00;;;27.70;48.52
78313;BME280;67568;47.438;21.408;2023-07-31T12:43:46;100072.84;;;27.86;48.52
78313;BME280;67568;47.438;21.408;2023-07-31T12:46:13;100069.38;;;28.01;48.08
78313;BME280;67568;47.438;21.408;2023-07-31T12:48:40;100074.63;;;28.03;47.52
78313;BME280;67568;47.438;21.408;2023-07-31T12:51:07;100073.75;;;27.79;48.36
78313;BME280;67568;47.438;21.408;2023-07-31T12:53:35;100069.81;;;27.69;48.28
78313;BME280;67568;47.438;21.408;2023-07-31T12:56:02;100066.28;;;27.58;48.80
78313;BME280;67568;47.438;21.408;2023-07-31T12:58:29;100063.50;;;27.51;49.00
78313;BME280;67568;47.438;21.408;2023-07-31T13:00:56;100055.25;;;27.60;48.53
78313;BME280;67568;47.438;21.408;2023-07-31T13:03:22;100059.41;;;27.52;47.80